Time;durP1;ratioP1;P1;durP2;ratioP2;P2;SDS_P1;SDS_P2;PMS_P1;PMS_P2;Temp;Humidity;BMP_temperature;BMP_pressure;BME280_temperature;BME280_humidity;BME280_pressure;Samples;Min_cycle;Max_cycle;Signal;HPM_P1;HPM_P2
2022/06/12 00:00:42;;;;;;;4.18;3.17;;;;;;;14.39;100.00;90754.03;5052722;28;20549;-66
2022/06/12 00:03:10;;;;;;;4.88;3.63;;;;;;;14.39;100.00;90746.78;5053070;28;20037;-66
2022/06/12 00:05:38;;;;;;;6.53;3.42;;;;;;;14.39;100.00;90754.81;5053311;28;20049;-66
2022/06/12 00:08:05;;;;;;;9.55;4.72;;;;;;;14.42;100.00;90739.22;5053149;28;20041;-66
2022/06/12 00:10:31;;;;;;;6.32;3.97;;;;;;;14.45;100.00;90739.34;5052677;28;20032;-66
2022/06/12 00:12:57;;;;;;;6.28;2.92;;;;;;;14.44;100.00;90743.13;5053241;28;20037;-66
2022/06/12 00:15:25;;;;;;;7.35;4.20;;;;;;;14.45;100.00;90735.88;5053225;28;20434;-66
2022/06/12 00:17:51;;;;;;;6.13;3.83;;;;;;;14.45;100.00;90730.53;5053221;28;20028;-66
2022/06/12 00:20:18;;;;;;;5.55;3.75;;;;;;;14.51;100.00;90740.66;5052573;28;20071;-66
2022/06/12 00:22:45;;;;;;;6.03;3.40;;;;;;;14.55;100.00;90738.88;5052972;28;20463;-66
2022/06/12 00:25:13;;;;;;;4.07;3.33;;;;;;;14.55;100.00;90733.53;5053318;28;20033;-66
2022/06/12 00:27:40;;;;;;;4.65;3.00;;;;;;;14.58;100.00;90740.88;5053351;28;20094;-66
2022/06/12 00:30:08;;;;;;;5.95;3.13;;;;;;;14.58;100.00;90740.88;5053316;28;20044;-66
2022/06/12 00:32:35;;;;;;;5.15;3.60;;;;;;;14.56;100.00;90731.63;5053035;28;20039;-66
2022/06/12 00:35:02;;;;;;;8.98;3.70;;;;;;;14.57;100.00;90733.97;5053295;28;20040;-66
2022/06/12 00:37:28;;;;;;;6.13;3.72;;;;;;;14.57;100.00;90728.63;5053004;28;20037;-66
2022/06/12 00:39:56;;;;;;;5.97;4.15;;;;;;;14.59;100.00;90737.09;5052764;28;20052;-66
2022/06/12 00:42:30;;;;;;;5.18;3.70;;;;;;;14.57;100.00;90739.34;5052969;28;20486;-66
2022/06/12 00:44:59;;;;;;;5.63;3.78;;;;;;;14.48;100.00;90741.34;5052817;28;20044;-66
2022/06/12 00:47:26;;;;;;;7.28;3.40;;;;;;;14.50;100.00;90732.97;5052706;28;20032;-66
2022/06/12 00:50:00;;;;;;;5.43;3.63;;;;;;;14.59;100.00;90731.75;5052664;28;20111;-66
2022/06/12 00:52:37;;;;;;;4.57;3.35;;;;;;;14.63;100.00;90737.97;5052714;28;20032;-66
2022/06/12 00:55:12;;;;;;;5.63;3.60;;;;;;;14.59;100.00;90729.06;5052668;28;20025;-66
2022/06/12 00:57:38;;;;;;;6.13;3.60;;;;;;;14.58;100.00;90740.09;5052676;28;20479;-66
2022/06/12 01:00:10;;;;;;;6.53;3.83;;;;;;;14.55;100.00;90730.84;5052483;28;20032;-66
2022/06/12 01:02:36;;;;;;;7.85;4.20;;;;;;;14.59;100.00;90742.44;5052470;28;20029;-67
2022/06/12 01:07:52;;;;;;;6.43;4.13;;;;;;;14.63;100.00;90732.63;5052537;28;20060;-67
2022/06/12 01:10:20;;;;;;;6.95;3.85;;;;;;;14.64;100.00;90730.72;5052263;28;20033;-66
2022/06/12 01:12:57;;;;;;;7.78;4.32;;;;;;;14.71;100.00;90730.94;5052302;28;20094;-66
2022/06/12 01:15:30;;;;;;;8.52;4.20;;;;;;;14.67;100.00;90733.53;5051502;28;20033;-66
2022/06/12 01:17:57;;;;;;;7.90;4.50;;;;;;;14.58;100.00;90722.16;5052218;28;20449;-66
2022/06/12 01:20:27;;;;;;;7.40;4.57;;;;;;;14.46;100.00;90724.84;5052093;28;20043;-66
2022/06/12 01:23:04;;;;;;;8.27;4.53;;;;;;;14.50;100.00;90722.25;5052055;28;20104;-66
2022/06/12 01:25:48;;;;;;;9.10;5.38;;;;;;;14.45;100.00;90720.59;5050792;28;20494;-66
2022/06/12 01:28:33;;;;;;;8.43;5.00;;;;;;;14.42;100.00;90723.94;5051952;28;20056;-66
2022/06/12 01:31:07;;;;;;;8.45;4.75;;;;;;;14.42;100.00;90725.81;5051827;28;20489;-66
2022/06/12 01:34:11;;;;;;;7.43;4.72;;;;;;;14.37;100.00;90722.25;5051929;28;20025;-65
2022/06/12 01:36:47;;;;;;;9.10;5.40;;;;;;;14.40;100.00;90723.50;5050536;28;20491;-65
2022/06/12 01:39:37;;;;;;;8.93;5.07;;;;;;;14.36;100.00;90728.72;5051820;28;20067;-65
2022/06/12 01:42:24;;;;;;;7.90;4.45;;;;;;;14.36;100.00;90718.03;5050469;28;20033;-65
2022/06/12 01:44:54;;;;;;;8.82;5.47;;;;;;;14.31;100.00;90714.78;5051745;28;20033;-65
2022/06/12 01:47:34;;;;;;;10.23;5.45;;;;;;;14.33;100.00;90713.31;5051652;28;20174;-65
2022/06/12 01:50:12;;;;;;;8.57;5.40;;;;;;;14.31;100.00;90717.47;5051617;28;20036;-65
2022/06/12 01:52:56;;;;;;;7.72;4.85;;;;;;;14.27;100.00;90709.34;5051603;28;20025;-65
2022/06/12 01:55:44;;;;;;;7.88;5.28;;;;;;;14.32;100.00;90717.13;5051603;28;20037;-65
2022/06/12 01:58:25;;;;;;;8.43;4.80;;;;;;;14.39;100.00;90711.22;5051479;28;20112;-65
2022/06/12 02:01:01;;;;;;;7.40;4.57;;;;;;;14.44;100.00;90713.69;5051330;28;20037;-65
2022/06/12 02:03:39;;;;;;;9.80;5.13;;;;;;;14.50;100.00;90717.69;5051353;28;20099;-65
2022/06/12 02:06:19;;;;;;;9.02;5.18;;;;;;;14.50;100.00;90719.59;5051068;28;20045;-64
2022/06/12 02:08:56;;;;;;;7.78;5.15;;;;;;;14.51;100.00;90715.78;5051244;28;20033;-64
2022/06/12 02:14:30;;;;;;;10.25;5.43;;;;;;;14.57;100.00;90720.59;5051449;28;20499;-64
2022/06/12 02:16:59;;;;;;;8.60;4.60;;;;;;;14.57;100.00;90717.13;5051206;28;20033;-64
2022/06/12 02:19:31;;;;;;;9.20;4.65;;;;;;;14.59;100.00;90720.25;5051105;28;20832;-65
2022/06/12 02:22:07;;;;;;;8.75;5.18;;;;;;;14.62;100.00;90723.03;5051095;28;20025;-64
2022/06/12 02:24:46;;;;;;;6.57;5.07;;;;;;;14.62;100.00;90723.03;5050911;28;20037;-65
2022/06/12 02:27:17;;;;;;;8.18;5.05;;;;;;;14.62;100.00;90712.31;5053471;28;20029;-65
2022/06/12 02:29:49;;;;;;;7.50;4.85;;;;;;;14.62;100.00;90709.63;5050221;28;20495;-65
2022/06/12 02:32:24;;;;;;;9.55;5.05;;;;;;;14.63;100.00;90699.72;5055850;28;20025;-65
2022/06/12 02:34:56;;;;;;;11.45;4.93;;;;;;;14.62;100.00;90703.50;5050973;28;20029;-65
2022/06/12 02:37:31;;;;;;;8.73;4.87;;;;;;;14.59;100.00;90704.97;5050456;28;20021;-65
2022/06/12 02:40:02;;;;;;;12.50;5.35;;;;;;;14.52;100.00;90712.81;5050619;28;20116;-65
2022/06/12 02:42:33;;;;;;;6.78;4.55;;;;;;;14.44;100.00;90713.69;5050987;28;20090;-65
2022/06/12 02:45:06;;;;;;;7.90;4.75;;;;;;;14.46;100.00;90711.47;5050934;28;20049;-65
2022/06/12 02:47:35;;;;;;;6.82;4.13;;;;;;;14.50;100.00;90714.22;5050856;28;20029;-65
2022/06/12 02:50:01;;;;;;;7.30;4.25;;;;;;;14.51;100.00;90716.56;5050926;28;20098;-65
2022/06/12 02:52:45;;;;;;;7.57;4.47;;;;;;;14.54;100.00;90712.47;5050772;28;20502;-65
2022/06/12 02:55:55;;;;;;;7.63;4.75;;;;;;;14.56;100.00;90719.03;5049467;28;20029;-65
2022/06/12 02:58:36;;;;;;;7.50;4.97;;;;;;;14.56;100.00;90707.53;5008982;28;20038;-65
2022/06/12 03:01:13;;;;;;;6.25;4.47;;;;;;;14.52;100.00;90712.03;5049071;28;20041;-65
2022/06/12 03:04:20;;;;;;;7.32;4.32;;;;;;;14.58;100.00;90705.31;5050705;28;20033;-65
2022/06/12 03:06:45;;;;;;;9.55;4.93;;;;;;;14.64;100.00;90707.41;5050251;28;20487;-65
2022/06/12 03:09:11;;;;;;;8.73;4.90;;;;;;;14.52;100.00;90712.81;5050471;28;20488;-65
2022/06/12 03:11:40;;;;;;;8.85;5.20;;;;;;;14.56;100.00;90723.59;5050436;28;20083;-65
2022/06/12 03:14:09;;;;;;;9.23;5.20;;;;;;;14.49;100.00;90715.34;5050515;28;20449;-64
2022/06/12 03:16:37;;;;;;;9.40;5.50;;;;;;;14.55;100.00;90719.38;5050468;28;20048;-65
2022/06/12 03:19:26;;;;;;;8.50;4.90;;;;;;;14.60;100.00;90719.13;5050479;28;20490;-65
2022/06/12 03:22:00;;;;;;;11.05;5.28;;;;;;;14.62;100.00;90714.22;5050482;28;20036;-65
2022/06/12 03:24:53;;;;;;;8.93;4.68;;;;;;;14.63;100.00;90729.94;5050700;28;20399;-65
2022/06/12 03:27:35;;;;;;;7.50;4.68;;;;;;;14.72;100.00;90712.97;5050645;28;20029;-65
2022/06/12 03:30:19;;;;;;;7.53;4.47;;;;;;;14.67;100.00;90706.75;5050432;28;20040;-65
2022/06/12 03:32:44;;;;;;;;;;;;;;;14.52;100.00;90718.16;5050854;28;20032;-65
2022/06/12 03:35:50;;;;;;;10.17;4.33;;;;;;;14.48;100.00;90719.91;5050422;28;19913;-65
2022/06/12 03:38:31;;;;;;;10.48;5.03;;;;;;;14.43;100.00;90728.16;5052326;28;20278;-65
2022/06/12 03:41:05;;;;;;;9.23;5.22;;;;;;;14.41;100.00;90733.06;5053904;28;20032;-64
2022/06/12 03:43:37;;;;;;;9.43;5.40;;;;;;;14.44;100.00;90740.47;5054032;28;20036;-64
2022/06/12 03:46:19;;;;;;;9.88;5.25;;;;;;;14.47;100.00;90744.34;5053870;28;20545;-64
2022/06/12 03:49:12;;;;;;;11.15;5.25;;;;;;;14.53;100.00;90743.03;5053780;28;20053;-64
2022/06/12 03:51:54;;;;;;;8.43;5.30;;;;;;;14.53;100.00;90733.09;5053765;28;20078;-65
2022/06/12 03:54:34;;;;;;;10.80;5.28;;;;;;;14.57;100.00;90733.19;5053748;28;20028;-64
2022/06/12 04:00:18;;;;;;;19.30;9.40;;;;;;;14.62;100.00;90747.13;5053647;28;20036;-64
2022/06/12 04:02:50;;;;;;;9.68;5.20;;;;;;;14.58;100.00;90745.47;5053581;28;20414;-64
2022/06/12 04:05:23;;;;;;;12.77;7.25;;;;;;;14.59;100.00;90747.81;5053542;28;20037;-64
2022/06/12 04:07:53;;;;;;;8.10;5.45;;;;;;;14.65;100.00;90748.34;5053605;28;20036;-64
2022/06/12 04:10:22;;;;;;;8.80;6.13;;;;;;;14.73;100.00;90754.69;5053408;28;20083;-64
2022/06/12 04:12:49;;;;;;;8.80;5.93;;;;;;;14.78;100.00;90744.53;5053477;28;20032;-64
2022/06/12 04:15:19;;;;;;;11.82;6.32;;;;;;;14.78;100.00;90746.44;5053420;28;20029;-64
2022/06/12 04:17:45;;;;;;;10.57;6.28;;;;;;;14.80;100.00;90762.94;5053357;28;20071;-64
2022/06/12 04:20:22;;;;;;;10.38;6.15;;;;;;;14.73;100.00;90754.69;5053259;28;20123;-64
2022/06/12 04:23:22;;;;;;;11.43;6.72;;;;;;;14.70;100.00;90758.06;5053248;28;20036;-64
2022/06/12 04:25:57;;;;;;;11.32;6.38;;;;;;;14.78;100.00;90759.81;5037142;28;20116;-65
2022/06/12 04:28:25;;;;;;;10.60;7.38;;;;;;;14.82;100.00;90753.44;5053122;28;20098;-64
2022/06/12 04:30:51;;;;;;;12.60;7.30;;;;;;;14.87;100.00;90749.78;5053022;28;20033;-65
2022/06/12 04:33:20;;;;;;;8.50;5.70;;;;;;;14.95;100.00;90760.34;5053073;28;20566;-65
2022/06/12 04:35:53;;;;;;;9.80;6.07;;;;;;;14.96;100.00;90755.75;5052990;28;20025;-65
2022/06/12 04:38:18;;;;;;;10.30;6.57;;;;;;;15.03;100.00;90752.53;5052913;28;20090;-64
2022/06/12 04:40:44;;;;;;;11.23;7.03;;;;;;;15.10;100.00;90755.38;5052813;28;20426;-65
2022/06/12 04:43:09;;;;;;;11.02;6.72;;;;;;;15.07;100.00;90756.06;5052842;28;20487;-65
2022/06/12 04:45:37;;;;;;;9.63;6.13;;;;;;;15.07;100.00;90753.41;5052708;28;20047;-65
2022/06/12 04:48:05;;;;;;;7.82;5.50;;;;;;;15.02;100.00;90757.09;5052708;28;20029;-65
2022/06/12 04:50:30;;;;;;;7.57;5.20;;;;;;;15.00;100.00;90755.88;5051521;28;20029;-65
2022/06/12 04:52:56;;;;;;;8.45;6.00;;;;;;;14.93;100.00;90759.91;5052594;28;20040;-64
2022/06/12 04:55:21;;;;;;;10.20;6.55;;;;;;;14.90;100.00;90765.94;5052596;28;20487;-64
2022/06/12 04:57:46;;;;;;;10.20;6.25;;;;;;;14.88;100.00;90754.78;5052520;28;20024;-64
2022/06/12 05:00:13;;;;;;;11.75;6.00;;;;;;;14.91;100.00;90756.78;5052589;28;20028;-65
2022/06/12 05:02:38;;;;;;;12.50;6.45;;;;;;;14.84;100.00;90764.63;5052424;28;20037;-65
2022/06/12 05:05:04;;;;;;;9.50;6.10;;;;;;;14.81;100.00;90769.84;5052237;28;20048;-65
2022/06/12 05:07:29;;;;;;;9.48;5.88;;;;;;;14.88;100.00;90770.06;5052239;28;20024;-65
2022/06/12 05:09:55;;;;;;;9.98;6.50;;;;;;;15.02;100.00;90759.00;5050814;28;20498;-65
2022/06/12 05:12:20;;;;;;;9.05;5.85;;;;;;;14.98;100.00;90764.22;5052222;28;20051;-65
2022/06/12 05:14:46;;;;;;;9.43;6.35;;;;;;;14.94;100.00;90774.06;5052105;28;20025;-65
2022/06/12 05:17:15;;;;;;;10.75;6.60;;;;;;;14.94;100.00;90779.44;5052081;28;20036;-65
2022/06/12 05:19:43;;;;;;;11.65;6.95;;;;;;;14.92;100.00;90779.00;5051907;28;20044;-65
2022/06/12 05:22:10;;;;;;;8.77;6.57;;;;;;;14.96;100.00;90780.66;5051996;28;20081;-64
2022/06/12 05:24:36;;;;;;;12.73;7.13;;;;;;;14.94;100.00;90784.78;5051904;28;20040;-64
2022/06/12 05:27:05;;;;;;;11.25;7.70;;;;;;;15.04;100.00;90786.22;5051906;28;20025;-64
2022/06/12 05:29:34;;;;;;;13.10;7.10;;;;;;;15.14;100.00;90788.41;5052040;28;20432;-64
2022/06/12 05:32:00;;;;;;;16.90;6.72;;;;;;;15.16;100.00;90780.84;5051653;28;20025;-63
2022/06/12 05:34:26;;;;;;;11.93;6.97;;;;;;;15.35;100.00;90788.25;5051543;28;20086;-64
2022/06/12 05:36:53;;;;;;;10.27;6.30;;;;;;;15.37;100.00;90791.38;5051661;28;20029;-63
2022/06/12 05:39:20;;;;;;;19.63;9.38;;;;;;;15.45;100.00;90788.53;5051623;28;20108;-63
2022/06/12 05:41:46;;;;;;;13.38;8.68;;;;;;;15.51;100.00;90797.91;5051694;28;20048;-64
2022/06/12 05:44:13;;;;;;;10.10;6.20;;;;;;;15.48;100.00;90800.50;5051729;28;20055;-64
2022/06/12 05:46:38;;;;;;;10.88;6.55;;;;;;;15.49;100.00;90796.69;5051619;28;20029;-64
2022/06/12 05:49:04;;;;;;;14.43;7.20;;;;;;;15.50;100.00;90798.25;5051132;28;20066;-65
2022/06/12 05:51:30;;;;;;;11.82;6.90;;;;;;;15.41;100.00;90803.75;5051578;28;20033;-64
2022/06/12 05:53:56;;;;;;;11.98;7.13;;;;;;;15.41;100.00;90808.34;5051544;28;20094;-64
2022/06/12 05:56:23;;;;;;;7.85;5.97;;;;;;;15.36;100.00;90806.69;5051329;28;20422;-64
2022/06/12 05:58:49;;;;;;;11.32;7.05;;;;;;;15.38;100.00;90809.00;5051240;28;20021;-64
2022/06/12 06:01:19;;;;;;;10.75;6.38;;;;;;;15.41;100.00;90813.69;5050948;28;20064;-64
2022/06/12 06:03:45;;;;;;;7.90;5.40;;;;;;;15.29;100.00;90831.34;5051235;28;20048;-63
2022/06/12 06:06:16;;;;;;;9.23;5.70;;;;;;;15.27;100.00;90825.56;5051186;28;20049;-65
2022/06/12 06:08:43;;;;;;;7.80;5.13;;;;;;;15.19;100.00;90823.81;5051261;28;20041;-63
2022/06/12 06:11:08;;;;;;;9.80;5.13;;;;;;;15.22;100.00;90836.53;5051214;28;20082;-64
2022/06/12 06:13:34;;;;;;;7.45;5.20;;;;;;;15.21;100.00;90831.50;5051547;28;20107;-64
2022/06/12 06:16:01;;;;;;;10.23;5.75;;;;;;;15.24;100.00;90831.59;5051705;28;20211;-65
2022/06/12 06:18:26;;;;;;;9.80;6.07;;;;;;;15.31;100.00;90832.94;5051762;28;20406;-65
2022/06/12 06:20:52;;;;;;;11.63;7.07;;;;;;;15.36;100.00;90835.38;5051237;28;20079;-64
2022/06/12 06:23:17;;;;;;;9.13;5.75;;;;;;;15.25;100.00;90832.38;5051446;28;20033;-64
2022/06/12 06:25:43;;;;;;;9.30;5.72;;;;;;;15.11;100.00;90843.47;5050967;28;20060;-64
2022/06/12 06:28:11;;;;;;;10.38;6.43;;;;;;;15.17;100.00;90844.81;5050731;28;20036;-65
2022/06/12 06:30:37;;;;;;;7.78;5.28;;;;;;;15.32;100.00;90850.59;5049559;28;20524;-65
2022/06/12 06:33:03;;;;;;;16.13;7.28;;;;;;;15.25;100.00;90853.81;5051091;28;20094;-65
2022/06/12 06:35:29;;;;;;;9.15;6.43;;;;;;;15.20;100.00;90852.16;5051076;28;20016;-64
2022/06/12 06:37:55;;;;;;;8.98;6.00;;;;;;;15.33;100.00;90857.50;5050860;28;20029;-64
2022/06/12 06:40:23;;;;;;;11.65;6.80;;;;;;;15.41;100.00;90857.38;5050873;28;20036;-65
2022/06/12 06:42:49;;;;;;;12.23;6.95;;;;;;;15.41;100.00;90861.94;5050386;28;20036;-65
2022/06/12 06:48:01;;;;;;;13.45;7.88;;;;;;;15.18;100.00;90867.81;5050639;28;20171;-65
2022/06/12 06:50:28;;;;;;;13.82;7.60;;;;;;;15.18;100.00;90865.13;5050789;28;20032;-65
2022/06/12 06:52:53;;;;;;;11.05;7.05;;;;;;;15.07;100.00;90872.06;5050924;28;21094;-64
2022/06/12 06:55:19;;;;;;;13.68;8.05;;;;;;;15.07;100.00;90874.72;5049636;28;20032;-64
2022/06/12 06:57:47;;;;;;;16.00;7.97;;;;;;;15.14;100.00;90877.63;5050855;28;20835;-65
2022/06/12 07:00:16;;;;;;;14.52;8.50;;;;;;;15.16;100.00;90871.94;5050747;28;20025;-65
2022/06/12 07:02:42;;;;;;;11.15;7.13;;;;;;;15.14;100.00;90874.94;5050703;28;20119;-65
2022/06/12 07:05:08;;;;;;;12.50;7.97;;;;;;;15.48;100.00;90886.28;5056385;28;20171;-65
2022/06/12 07:07:34;;;;;;;15.02;7.88;;;;;;;15.45;100.00;90879.69;5071021;28;20025;-64
2022/06/12 07:10:01;;;;;;;16.55;8.68;;;;;;;15.63;100.00;90866.84;5070878;28;20033;-64
2022/06/12 07:12:27;;;;;;;10.27;5.78;;;;;;;15.84;100.00;90864.75;5071432;28;20025;-64
2022/06/12 07:14:52;;;;;;;11.80;6.82;;;;;;;15.90;100.00;90870.63;5074494;28;20055;-65
2022/06/12 07:17:18;;;;;;;11.18;7.03;;;;;;;15.94;100.00;90860.00;5074492;28;20024;-65
2022/06/12 07:19:44;;;;;;;12.85;7.28;;;;;;;16.21;100.00;90867.25;5074400;28;20033;-65
2022/06/12 07:22:10;;;;;;;12.57;7.50;;;;;;;16.46;100.00;90865.22;5071742;28;20513;-65
2022/06/12 07:24:36;;;;;;;12.80;6.53;;;;;;;16.54;100.00;90872.31;5052516;28;20056;-70
2022/06/12 07:27:01;;;;;;;11.02;7.18;;;;;;;16.64;100.00;90871.03;5052186;28;20482;-66
2022/06/12 07:29:27;;;;;;;8.55;5.45;;;;;;;16.73;100.00;90866.31;5053629;28;20112;-66
2022/06/12 07:31:53;;;;;;;7.38;5.35;;;;;;;16.80;100.00;90868.38;5053418;28;20033;-67
2022/06/12 07:34:18;;;;;;;5.45;4.38;;;;;;;16.52;100.00;90871.88;5053513;28;20056;-68
2022/06/12 07:36:47;;;;;;;5.55;4.32;;;;;;;16.24;100.00;90877.28;5053690;28;20033;-68
2022/06/12 07:39:18;;;;;;;5.82;4.18;;;;;;;16.25;100.00;90873.47;5053580;28;20063;-67
2022/06/12 07:41:45;;;;;;;5.10;3.67;;;;;;;16.50;100.00;90881.41;5052938;28;20037;-67
2022/06/12 07:44:11;;;;;;;6.00;3.75;;;;;;;16.39;100.00;90881.91;5053523;28;20399;-68
2022/06/12 07:46:37;;;;;;;5.82;4.13;;;;;;;16.20;100.00;90881.78;5052636;28;20510;-68
2022/06/12 07:49:02;;;;;;;5.22;4.05;;;;;;;16.38;100.00;90884.94;5071256;28;20032;-68
2022/06/12 07:51:28;;;;;;;5.75;4.57;;;;;;;16.58;100.00;90877.78;5054912;28;20577;-68
2022/06/12 07:53:54;;;;;;;6.28;4.45;;;;;;;16.97;100.00;90884.13;5073161;28;20038;-67
2022/06/12 07:56:22;;;;;;;8.93;4.55;;;;;;;17.24;100.00;90869.03;5073271;28;20040;-67
2022/06/12 07:58:47;;;;;;;7.45;5.32;;;;;;;17.32;100.00;90876.09;5072960;28;20036;-68
2022/06/12 08:01:17;;;;;;;6.93;5.13;;;;;;;17.73;100.00;90876.63;5072797;28;20102;-67
2022/06/12 08:03:43;;;;;;;6.55;4.32;;;;;;;17.84;100.00;90875.72;5073360;28;20036;-66
2022/06/12 08:06:09;;;;;;;5.40;4.30;;;;;;;18.07;100.00;90872.31;5058572;28;20041;-68
2022/06/12 08:08:35;;;;;;;5.88;4.57;;;;;;;17.92;100.00;90869.34;5052941;28;20029;-68
2022/06/12 08:11:01;;;;;;;6.28;4.82;;;;;;;18.21;100.00;90878.75;5052246;28;20091;-68
2022/06/12 08:13:27;;;;;;;6.18;4.40;;;;;;;17.76;100.00;90868.63;5053027;28;20029;-67
2022/06/12 08:15:54;;;;;;;5.05;4.55;;;;;;;17.81;100.00;90860.25;5053033;28;20029;-67
2022/06/12 08:18:22;;;;;;;5.35;4.13;;;;;;;17.73;100.00;90863.94;5053024;28;20029;-68
2022/06/12 08:20:52;;;;;;;6.40;4.75;;;;;;;17.38;100.00;90869.34;5052773;28;20100;-67
2022/06/12 08:23:33;;;;;;;6.85;4.78;;;;;;;17.06;100.00;90876.69;5052755;28;20116;-68
2022/06/12 08:26:09;;;;;;;6.70;4.22;;;;;;;16.82;100.00;90887.59;5052562;28;20082;-67
2022/06/12 08:28:42;;;;;;;5.70;4.30;;;;;;;16.87;100.00;90882.75;5052751;28;20025;-67
2022/06/12 08:31:10;;;;;;;;;;;;;;;17.12;100.00;90885.25;5053383;28;20033;-67
2022/06/12 08:33:38;;;;;;;7.88;4.47;;;;;;;17.13;100.00;90884.91;5053053;28;19960;-67
2022/06/12 08:36:06;;;;;;;4.65;3.70;;;;;;;16.62;100.00;90884.03;5052763;28;20048;-67
2022/06/12 08:38:33;;;;;;;6.35;4.18;;;;;;;16.24;100.00;90890.72;5052717;28;20055;-67
2022/06/12 08:41:04;;;;;;;5.55;4.05;;;;;;;16.06;100.00;90894.81;5050153;28;20028;-67
2022/06/12 08:43:48;;;;;;;5.38;4.20;;;;;;;16.14;100.00;90888.53;5042319;28;20111;-68
2022/06/12 08:46:22;;;;;;;7.45;4.82;;;;;;;16.21;100.00;90887.94;5031824;28;20527;-69
2022/06/12 08:49:01;;;;;;;5.78;4.30;;;;;;;16.15;100.00;90895.47;5032219;28;20025;-66
2022/06/12 08:51:57;;;;;;;6.55;3.63;;;;;;;15.93;100.00;90898.69;5025404;28;20112;-67
2022/06/12 08:54:34;;;;;;;6.78;3.85;;;;;;;15.85;100.00;90895.03;5006813;28;20103;-68
2022/06/12 08:57:11;;;;;;;5.55;3.75;;;;;;;16.07;100.00;90901.75;5032267;28;20084;-69
2022/06/12 08:59:46;;;;;;;5.22;3.90;;;;;;;16.11;100.00;90908.03;5032131;28;20025;-69
2022/06/12 09:02:21;;;;;;;6.25;5.03;;;;;;;16.01;100.00;90898.53;5028114;28;20407;-69
2022/06/12 09:04:46;;;;;;;6.45;4.55;;;;;;;16.09;100.00;90908.34;5035092;28;20033;-69
2022/06/12 09:07:18;;;;;;;5.75;4.18;;;;;;;16.10;100.00;90906.47;5052054;28;20104;-68
2022/06/12 09:09:59;;;;;;;6.43;4.20;;;;;;;16.25;100.00;90911.06;5050595;28;20032;-67
2022/06/12 09:12:29;;;;;;;6.47;4.50;;;;;;;16.34;100.00;90902.88;5051133;28;20017;-66
2022/06/12 09:15:19;;;;;;;7.55;4.35;;;;;;;16.39;100.00;90906.06;5051949;28;20112;-69
2022/06/12 09:18:15;;;;;;;8.73;5.68;;;;;;;16.32;100.00;90907.81;5051839;28;20343;-68
2022/06/12 09:20:49;;;;;;;6.63;4.47;;;;;;;16.12;100.00;90896.94;5049690;28;20086;-68
2022/06/12 09:23:42;;;;;;;5.05;3.95;;;;;;;16.08;100.00;90909.47;5051630;28;20029;-67
2022/06/12 09:26:08;;;;;;;6.32;4.82;;;;;;;16.11;100.00;90906.13;5051288;28;20498;-68
2022/06/12 09:28:53;;;;;;;6.22;4.43;;;;;;;16.09;100.00;90910.25;5051610;28;20033;-68
2022/06/12 09:31:38;;;;;;;6.68;4.35;;;;;;;16.25;100.00;90916.44;5050944;28;20453;-67
2022/06/12 09:34:25;;;;;;;5.30;4.07;;;;;;;16.52;100.00;90914.84;5051810;28;20033;-68
2022/06/12 09:36:56;;;;;;;24.38;17.88;;;;;;;16.76;100.00;90924.72;5051114;28;20040;-68
2022/06/12 09:39:47;;;;;;;5.05;4.15;;;;;;;16.72;100.00;90929.97;5051237;28;20699;-68
2022/06/12 09:42:20;;;;;;;6.47;5.18;;;;;;;17.05;100.00;90921.59;5050572;28;20032;-66
2022/06/12 09:44:53;;;;;;;7.95;6.05;;;;;;;17.31;100.00;90922.94;5051292;28;20039;-66
2022/06/12 09:47:19;;;;;;;8.07;5.43;;;;;;;17.21;100.00;90921.59;5051194;28;20040;-68
2022/06/12 09:50:12;;;;;;;7.80;4.97;;;;;;;17.64;100.00;90920.63;5051108;28;20047;-68
2022/06/12 09:52:59;;;;;;;6.67;4.60;;;;;;;18.24;100.00;90915.72;5051223;28;20510;-69
2022/06/12 09:55:33;;;;;;;5.97;5.00;;;;;;;18.28;100.00;90913.09;5051465;28;20510;-68
2022/06/12 09:58:15;;;;;;;7.00;5.50;;;;;;;17.92;100.00;90912.41;5050792;28;20029;-67
2022/06/12 10:00:43;;;;;;;6.20;4.57;;;;;;;17.49;100.00;90910.66;5050436;28;20061;-68
2022/06/12 10:03:25;;;;;;;6.80;4.82;;;;;;;17.07;100.00;90910.50;5049707;28;20418;-68
2022/06/12 10:06:06;;;;;;;6.43;5.25;;;;;;;16.51;100.00;90899.84;5050909;28;20367;-68
2022/06/12 10:08:50;;;;;;;6.57;4.55;;;;;;;16.23;100.00;90913.31;5050977;28;20555;-67
2022/06/12 10:11:37;;;;;;;4.80;3.88;;;;;;;16.31;100.00;90914.31;5049834;28;20072;-68
2022/06/12 10:14:18;;;;;;;7.13;4.40;;;;;;;16.03;100.00;90912.41;5051201;28;20033;-66
2022/06/12 10:16:53;;;;;;;6.55;4.78;;;;;;;16.11;100.00;90913.38;5050855;28;20033;-66
2022/06/12 10:19:40;;;;;;;6.55;3.97;;;;;;;15.92;100.00;90905.94;5050703;28;20053;-66
2022/06/12 10:22:35;;;;;;;6.00;4.68;;;;;;;15.89;100.00;90903.94;5050332;28;20033;-67
2022/06/12 10:25:04;;;;;;;6.30;4.32;;;;;;;15.96;100.00;90906.84;5034865;28;20068;-67
2022/06/12 10:28:05;;;;;;;9.57;5.10;;;;;;;15.89;100.00;90903.94;5050228;28;20025;-67
2022/06/12 10:30:56;;;;;;;10.52;5.75;;;;;;;15.85;100.00;90893.13;5046983;28;20044;-68
2022/06/12 10:33:24;;;;;;;8.05;5.57;;;;;;;16.09;100.00;90907.56;5039867;28;20045;-68
2022/06/12 10:35:59;;;;;;;8.95;6.03;;;;;;;16.00;100.00;90907.72;5050840;28;20166;-67
2022/06/12 10:38:28;;;;;;;8.80;5.30;;;;;;;15.95;100.00;90897.25;5050713;28;20052;-67
2022/06/12 10:40:57;;;;;;;8.52;5.50;;;;;;;16.22;100.00;90901.00;5049596;28;20387;-66
2022/06/12 10:43:28;;;;;;;11.23;7.10;;;;;;;16.43;100.00;90912.34;5050675;28;20033;-66
2022/06/12 10:46:13;;;;;;;10.10;6.30;;;;;;;16.61;100.00;90901.28;5050569;28;20033;-67
2022/06/12 10:48:39;;;;;;;9.45;6.15;;;;;;;16.63;100.00;90901.69;5090016;28;20032;-66
2022/06/12 10:51:13;;;;;;;8.40;5.78;;;;;;;16.57;100.00;90898.50;5094640;28;20109;-67
2022/06/12 10:53:39;;;;;;;9.88;6.20;;;;;;;16.45;100.00;90899.34;5087618;28;20032;-67
2022/06/12 10:56:07;;;;;;;9.38;5.90;;;;;;;16.60;100.00;90910.44;5094430;28;20031;-67
2022/06/12 10:58:53;;;;;;;8.63;5.85;;;;;;;16.58;100.00;90907.34;5094604;28;20048;-69
2022/06/12 11:01:29;;;;;;;9.32;6.13;;;;;;;16.42;100.00;90900.03;5094102;28;20567;-67
2022/06/12 11:04:21;;;;;;;11.23;6.28;;;;;;;16.30;100.00;90900.09;5094898;28;20468;-68
2022/06/12 11:07:03;;;;;;;8.77;5.80;;;;;;;16.09;100.00;90892.22;5094323;28;20056;-67
2022/06/12 11:10:02;;;;;;;8.70;6.20;;;;;;;16.15;100.00;90898.16;5094382;28;20107;-67
2022/06/12 11:12:45;;;;;;;8.95;5.50;;;;;;;16.04;100.00;90902.44;5093964;28;20413;-68
2022/06/12 11:15:33;;;;;;;14.05;7.28;;;;;;;16.24;100.00;90898.75;5094164;28;20097;-67
2022/06/12 11:18:16;;;;;;;10.55;6.80;;;;;;;16.39;100.00;90900.69;5094351;28;20054;-67
2022/06/12 11:20:57;;;;;;;8.90;6.25;;;;;;;16.47;100.00;90901.69;5093632;28;20035;-68
2022/06/12 11:23:26;;;;;;;13.70;6.55;;;;;;;16.68;100.00;90898.78;5094246;28;20040;-69
2022/06/12 11:26:00;;;;;;;7.28;5.28;;;;;;;16.92;100.00;90901.31;5092460;28;20073;-68
2022/06/12 11:28:47;;;;;;;9.45;5.78;;;;;;;16.97;100.00;90903.72;5094137;28;20028;-65
2022/06/12 11:31:43;;;;;;;10.77;6.68;;;;;;;16.89;100.00;90898.53;5093469;28;20098;-67
2022/06/12 11:34:30;;;;;;;15.18;7.00;;;;;;;17.05;100.00;90905.47;5094830;28;20482;-63
2022/06/12 11:36:55;;;;;;;10.98;6.68;;;;;;;17.48;100.00;90900.25;5092536;28;20107;-64
2022/06/12 11:39:42;;;;;;;8.80;6.15;;;;;;;18.08;100.00;90900.78;5093759;28;20114;-64
2022/06/12 11:42:29;;;;;;;10.68;5.97;;;;;;;18.89;100.00;90906.16;5093374;28;20099;-65
2022/06/12 11:45:12;;;;;;;10.35;5.13;;;;;;;19.21;100.00;90895.88;5093809;28;20097;-64
2022/06/12 11:48:13;;;;;;;7.05;4.97;;;;;;;19.05;100.00;90888.72;5093729;28;20119;-64
2022/06/12 11:50:49;;;;;;;7.50;4.55;;;;;;;18.91;100.00;90896.56;5093150;28;20024;-65
2022/06/12 11:53:54;;;;;;;5.25;4.32;;;;;;;18.66;100.00;90898.84;5093666;28;20072;-65
2022/06/12 11:56:38;;;;;;;5.68;4.45;;;;;;;18.19;100.00;90891.00;5093334;28;20026;-64
2022/06/12 11:59:34;;;;;;;8.10;5.43;;;;;;;18.08;100.00;90896.19;5092832;28;20028;-65
2022/06/12 12:02:16;;;;;;;9.02;5.22;;;;;;;18.63;100.00;90907.66;5092955;28;20020;-65
2022/06/12 12:05:01;;;;;;;9.05;6.25;;;;;;;18.93;100.00;90901.59;5093345;28;20102;-65